Wetterdaten: Woche 05.12.16 - 11.12.16 (KW49)
Datum Zeit Temp. A. Feuchte A. Luftdruck Regen Wind Richtung Taupunkt Windchill Windben
05.12.2016 00:00 -6,3 C 84 % 1032,4 hPa 0,0 l/m 0,0 km/h N -8,5 C -6,3 C 0,0 km/h
05.12.2016 01:00 -6,4 C 84 % 1032,1 hPa 0,0 l/m 0,0 km/h N -8,6 C -6,4 C 0,0 km/h
05.12.2016 02:00 -6,3 C 86 % 1031,9 hPa 0,0 l/m 0,0 km/h N -8,3 C -6,3 C 0,0 km/h
05.12.2016 03:00 -6,4 C 84 % 1031,7 hPa 0,0 l/m 0,0 km/h N -8,7 C -6,4 C 0,0 km/h
05.12.2016 04:00 -6,5 C 84 % 1031,5 hPa 0,0 l/m 0,0 km/h N -8,7 C -6,5 C 0,0 km/h
05.12.2016 05:00 -6,6 C 84 % 1031,4 hPa 0,0 l/m 0,0 km/h N -8,8 C -6,6 C 0,0 km/h
05.12.2016 06:00 -6,5 C 84 % 1031,4 hPa 0,0 l/m 0,0 km/h N -8,8 C -6,5 C 0,0 km/h
05.12.2016 07:00 -6,1 C 84 % 1031,3 hPa 0,0 l/m 0,0 km/h N -8,4 C -6,1 C 0,0 km/h
05.12.2016 08:00 -5,2 C 84 % 1031,3 hPa 0,0 l/m 0,0 km/h N -7,5 C -5,2 C 0,8 km/h
05.12.2016 09:00 -3,3 C 84 % 1031,4 hPa 0,0 l/m 0,8 km/h N -5,6 C -3,3 C 5,2 km/h
05.12.2016 10:00 -2,1 C 84 % 1031,3 hPa 0,0 l/m 2,6 km/h N -4,5 C -2,1 C 7,6 km/h
05.12.2016 11:00 -1,4 C 84 % 1030,8 hPa 0,0 l/m 3,6 km/h N -3,7 C -1,4 C 8,9 km/h
05.12.2016 12:00 -0,5 C 84 % 1030,3 hPa 0,0 l/m 1,6 km/h N -2,8 C -0,5 C 7,2 km/h
05.12.2016 13:00 0,4 C 83 % 1029,8 hPa 0,0 l/m 0,5 km/h N -2,1 C 0,4 C 4,8 km/h
05.12.2016 14:00 0,8 C 81 % 1029,6 hPa 0,0 l/m 1,9 km/h N -2,0 C 0,8 C 6,0 km/h
05.12.2016 15:00 0,3 C 81 % 1029,7 hPa 0,0 l/m 1,0 km/h N -2,7 C 0,3 C 5,2 km/h
05.12.2016 16:00 -0,9 C 81 % 1029,8 hPa 0,0 l/m 0,0 km/h N -3,7 C -0,9 C 0,4 km/h
05.12.2016 17:00 -2,3 C 82 % 1029,9 hPa 0,0 l/m 0,0 km/h N -4,9 C -2,3 C 0,4 km/h
05.12.2016 18:00 -3,0 C 84 % 1029,8 hPa 0,0 l/m 0,0 km/h N -5,3 C -3,0 C 2,0 km/h
05.12.2016 19:00 -3,4 C 84 % 1029,7 hPa 0,0 l/m 0,0 km/h N -5,7 C -3,4 C 1,6 km/h
05.12.2016 20:00 -3,5 C 84 % 1029,7 hPa 0,0 l/m 0,5 km/h N -5,8 C -3,5 C 4,4 km/h
05.12.2016 21:00 -3,1 C 84 % 1029,9 hPa 0,0 l/m 0,1 km/h N -5,4 C -3,1 C 2,0 km/h
05.12.2016 22:00 -2,8 C 84 % 1029,7 hPa 0,0 l/m 0,1 km/h N -5,1 C -2,8 C 2,0 km/h
05.12.2016 23:00 -2,9 C 84 % 1029,4 hPa 0,0 l/m 1,0 km/h N -5,2 C -2,9 C 6,4 km/h
06.12.2016 00:00 -2,8 C 84 % 1029,2 hPa 0,0 l/m 0,8 km/h N -5,1 C -2,8 C 4,4 km/h
06.12.2016 01:00 -2,8 C 84 % 1029,2 hPa 0,0 l/m 0,4 km/h N -5,1 C -2,8 C 4,0 km/h
06.12.2016 02:00 -3,3 C 84 % 1029,1 hPa 0,0 l/m 0,2 km/h N -5,6 C -3,3 C 2,4 km/h
06.12.2016 03:00 -4,3 C 85 % 1029,2 hPa 0,0 l/m 0,0 km/h N -6,5 C -4,3 C 1,2 km/h
06.12.2016 04:00 -5,2 C 85 % 1029,0 hPa 0,0 l/m 0,0 km/h N -7,4 C -5,2 C 0,0 km/h
06.12.2016 05:00 -5,9 C 85 % 1029,2 hPa 0,0 l/m 0,0 km/h N -8,1 C -5,9 C 0,0 km/h
06.12.2016 06:00 -6,5 C 85 % 1029,2 hPa 0,0 l/m 0,0 km/h N -8,6 C -6,5 C 0,5 km/h
06.12.2016 07:00 -6,3 C 86 % 1029,5 hPa 0,0 l/m 0,0 km/h N -8,2 C -6,3 C 0,4 km/h
06.12.2016 08:00 -4,9 C 84 % 1029,8 hPa 0,0 l/m 0,0 km/h N -7,2 C -4,9 C 0,4 km/h
06.12.2016 09:00 -3,3 C 84 % 1029,9 hPa 0,0 l/m 0,0 km/h N -5,6 C -3,3 C 0,4 km/h
06.12.2016 10:00 -1,7 C 84 % 1030,1 hPa 0,0 l/m 1,7 km/h N -4,1 C -1,7 C 6,1 km/h
06.12.2016 11:00 0,6 C 84 % 1030,3 hPa 0,0 l/m 8,4 km/h N -1,8 C -1,4 C 20,5 km/h
06.12.2016 12:00 1,3 C 83 % 1030,6 hPa 0,0 l/m 11,4 km/h N -1,4 C -3,1 C 27,8 km/h
06.12.2016 13:00 1,2 C 81 % 1031,0 hPa 0,0 l/m 9,4 km/h N -1,7 C -1,6 C 22,9 km/h
06.12.2016 14:00 0,8 C 80 % 1031,2 hPa 0,0 l/m 8,6 km/h N -2,3 C -1,3 C 22,1 km/h
06.12.2016 15:00 0,4 C 79 % 1031,5 hPa 0,0 l/m 3,8 km/h N -2,8 C 0,4 C 14,1 km/h
06.12.2016 16:00 0,2 C 80 % 1032,2 hPa 0,0 l/m 5,6 km/h N -2,8 C -0,1 C 16,1 km/h
06.12.2016 17:00 -0,0 C 81 % 1032,8 hPa 0,0 l/m 5,1 km/h N -2,9 C -0,0 C 15,7 km/h
06.12.2016 18:00 0,1 C 81 % 1033,6 hPa 0,0 l/m 4,3 km/h N -2,8 C 0,1 C 14,5 km/h
06.12.2016 19:00 0,3 C 80 % 1034,0 hPa 0,0 l/m 3,4 km/h N -2,8 C 0,3 C 12,5 km/h
06.12.2016 20:00 0,8 C 78 % 1034,5 hPa 0,0 l/m 5,6 km/h N -2,6 C 0,6 C 15,7 km/h
06.12.2016 21:00 0,7 C 77 % 1034,7 hPa 0,0 l/m 1,8 km/h N -2,8 C 0,7 C 7,2 km/h
06.12.2016 22:00 -0,6 C 78 % 1035,0 hPa 0,0 l/m 0,0 km/h N -3,9 C -0,6 C 0,4 km/h
06.12.2016 23:00 -1,7 C 81 % 1035,5 hPa 0,0 l/m 0,0 km/h N -4,6 C -1,7 C 1,2 km/h
07.12.2016 00:00 -2,3 C 83 % 1035,8 hPa 0,0 l/m 0,1 km/h N -4,8 C -2,3 C 1,6 km/h
07.12.2016 01:00 -1,2 C 84 % 1035,9 hPa 0,0 l/m 0,1 km/h N -3,5 C -1,2 C 2,8 km/h
07.12.2016 02:00 0,1 C 83 % 1036,4 hPa 0,0 l/m 0,0 km/h N -2,5 C 0,1 C 1,2 km/h
07.12.2016 03:00 0,2 C 82 % 1036,9 hPa 0,0 l/m 0,0 km/h N -2,5 C 0,2 C 0,4 km/h
07.12.2016 04:00 -0,1 C 82 % 1037,4 hPa 0,0 l/m 0,0 km/h N -2,8 C -0,1 C 0,0 km/h
07.12.2016 05:00 -0,4 C 82 % 1037,8 hPa 0,0 l/m 0,0 km/h N -3,1 C -0,4 C 0,0 km/h
07.12.2016 06:00 -1,6 C 82 % 1038,3 hPa 0,0 l/m 0,0 km/h N -4,2 C -1,6 C 0,0 km/h
07.12.2016 07:00 -2,5 C 84 % 1038,3 hPa 0,0 l/m 0,0 km/h N -4,8 C -2,5 C 0,0 km/h
07.12.2016 08:00 -2,6 C 84 % 1038,5 hPa 0,0 l/m 0,0 km/h N -5,0 C -2,6 C 0,0 km/h
07.12.2016 09:00 -1,9 C 84 % 1039,0 hPa 0,0 l/m 0,0 km/h N -4,3 C -1,9 C 0,0 km/h
07.12.2016 10:00 -0,3 C 84 % 1039,1 hPa 0,0 l/m 0,0 km/h N -2,7 C -0,3 C 0,4 km/h
07.12.2016 11:00 1,6 C 84 % 1038,5 hPa 0,0 l/m 0,1 km/h N -0,8 C 1,6 C 3,2 km/h
07.12.2016 12:00 3,5 C 78 % 1037,9 hPa 0,0 l/m 0,6 km/h N 0,0 C 3,5 C 5,2 km/h
07.12.2016 13:00 4,2 C 73 % 1036,9 hPa 0,0 l/m 0,6 km/h N -0,3 C 4,2 C 6,0 km/h
07.12.2016 14:00 3,9 C 73 % 1036,8 hPa 0,0 l/m 0,1 km/h N -0,5 C 3,9 C 3,2 km/h
07.12.2016 15:00 3,0 C 74 % 1036,9 hPa 0,0 l/m 0,0 km/h N -1,1 C 3,0 C 3,6 km/h
07.12.2016 16:00 1,8 C 76 % 1037,3 hPa 0,0 l/m 0,0 km/h N -2,0 C 1,8 C 0,0 km/h
07.12.2016 17:00 0,4 C 78 % 1037,3 hPa 0,0 l/m 0,0 km/h N -3,1 C 0,4 C 0,0 km/h
07.12.2016 18:00 -1,0 C 80 % 1037,1 hPa 0,0 l/m 0,0 km/h N -4,1 C -1,0 C 0,0 km/h
07.12.2016 19:00 -1,8 C 82 % 1037,0 hPa 0,0 l/m 0,0 km/h N -4,5 C -1,8 C 0,0 km/h
07.12.2016 20:00 -2,5 C 83 % 1037,2 hPa 0,0 l/m 0,0 km/h N -5,1 C -2,5 C 0,0 km/h
07.12.2016 21:00 -3,0 C 84 % 1037,2 hPa 0,0 l/m 0,0 km/h N -5,4 C -3,0 C 0,0 km/h
07.12.2016 22:00 -3,3 C 84 % 1037,3 hPa 0,0 l/m 0,0 km/h N -5,6 C -3,3 C 0,0 km/h
07.12.2016 23:00 -4,1 C 84 % 1037,2 hPa 0,0 l/m 0,0 km/h N -6,4 C -4,1 C 0,0 km/h
08.12.2016 00:00 -4,3 C 84 % 1037,1 hPa 0,0 l/m 0,0 km/h N -6,6 C -4,3 C 0,0 km/h
08.12.2016 01:00 -3,4 C 84 % 1037,2 hPa 0,0 l/m 0,0 km/h N -5,8 C -3,4 C 0,0 km/h
08.12.2016 02:00 -2,5 C 84 % 1037,1 hPa 0,0 l/m 0,0 km/h N -4,8 C -2,5 C 0,0 km/h
08.12.2016 03:00 -2,1 C 84 % 1036,8 hPa 0,0 l/m 0,1 km/h N -4,5 C -2,1 C 1,2 km/h
08.12.2016 04:00 -2,1 C 84 % 1036,9 hPa 0,0 l/m 0,0 km/h N -4,4 C -2,1 C 0,8 km/h
08.12.2016 05:00 -2,1 C 84 % 1037,0 hPa 0,0 l/m 0,0 km/h N -4,4 C -2,1 C 0,0 km/h
08.12.2016 06:00 -2,0 C 84 % 1036,8 hPa 0,0 l/m 0,0 km/h N -4,3 C -2,0 C 0,4 km/h
08.12.2016 07:00 -1,9 C 84 % 1036,8 hPa 0,0 l/m 0,0 km/h N -4,2 C -1,9 C 1,6 km/h
08.12.2016 08:00 -1,9 C 84 % 1037,0 hPa 0,0 l/m 0,0 km/h N -4,2 C -1,9 C 0,8 km/h
08.12.2016 09:00 -1,7 C 84 % 1036,8 hPa 0,0 l/m 0,0 km/h N -4,1 C -1,7 C 0,8 km/h
08.12.2016 10:00 -1,5 C 84 % 1036,4 hPa 0,0 l/m 0,3 km/h N -3,8 C -1,5 C 5,6 km/h
08.12.2016 12:00 -1,0 C 84 % 1035,2 hPa 0,0 l/m 0,0 km/h N -3,4 C -1,0 C 4,8 km/h
08.12.2016 13:00 -0,9 C 84 % 1034,7 hPa 0,0 l/m 0,0 km/h N -3,2 C -0,9 C 8,1 km/h
08.12.2016 14:00 -0,8 C 84 % 1034,5 hPa 0,0 l/m 0,0 km/h N -3,1 C -0,8 C 0,8 km/h
08.12.2016 15:00 -1,0 C 84 % 1033,8 hPa 0,0 l/m 0,0 km/h N -3,4 C -1,0 C 4,8 km/h
08.12.2016 16:00 -1,0 C 84 % 1033,6 hPa 0,0 l/m 0,0 km/h N -3,4 C -1,0 C 5,6 km/h
08.12.2016 17:00 -1,3 C 84 % 1033,2 hPa 0,0 l/m 0,0 km/h N -3,6 C -1,3 C 5,6 km/h
08.12.2016 18:00 -1,5 C 84 % 1032,9 hPa 0,0 l/m 0,0 km/h N -3,8 C -1,5 C 0,8 km/h
08.12.2016 19:00 -1,6 C 84 % 1032,9 hPa 0,0 l/m 0,0 km/h N -3,9 C -1,6 C 2,4 km/h
08.12.2016 20:00 -1,6 C 84 % 1032,6 hPa 0,0 l/m 0,0 km/h N -3,9 C -1,6 C 4,0 km/h
08.12.2016 21:00 -1,8 C 84 % 1031,6 hPa 0,0 l/m 0,0 km/h N -4,2 C -1,8 C 4,8 km/h
08.12.2016 22:00 -2,0 C 84 % 1032,0 hPa 0,0 l/m 0,0 km/h N -4,3 C -2,0 C 4,8 km/h
08.12.2016 23:00 -2,0 C 84 % 1032,3 hPa 0,0 l/m 0,0 km/h N -4,3 C -2,0 C 2,4 km/h
09.12.2016 00:00 -1,9 C 84 % 1031,6 hPa 0,0 l/m 0,0 km/h N -4,2 C -1,9 C 1,6 km/h
09.12.2016 01:00 -2,0 C 84 % 1030,6 hPa 0,0 l/m 0,0 km/h N -4,4 C -2,0 C 2,4 km/h
09.12.2016 02:00 -2,0 C 84 % 1030,4 hPa 0,0 l/m 0,0 km/h N -4,3 C -2,0 C 1,6 km/h
09.12.2016 03:00 -1,8 C 84 % 1030,2 hPa 0,0 l/m 0,0 km/h N -4,1 C -1,8 C 0,0 km/h
09.12.2016 04:00 -1,6 C 84 % 1029,4 hPa 0,0 l/m 0,0 km/h N -3,9 C -1,6 C 3,2 km/h
09.12.2016 05:00 -1,8 C 84 % 1029,2 hPa 0,0 l/m 0,0 km/h N -4,1 C -1,8 C 4,0 km/h
09.12.2016 06:00 -2,8 C 84 % 1028,9 hPa 0,0 l/m 0,0 km/h N -5,1 C -2,8 C 4,8 km/h
09.12.2016 07:00 -3,2 C 84 % 1028,9 hPa 0,0 l/m 0,5 km/h N -5,5 C -3,2 C 4,0 km/h
09.12.2016 08:00 3,1 C 76 % 1028,4 hPa 0,0 l/m 8,6 km/h N -1,2 C 0,8 C 27,0 km/h
09.12.2016 09:00 10,6 C 41 % 1028,1 hPa 0,0 l/m 15,7 km/h N -2,3 C 5,6 C 37,0 km/h
09.12.2016 10:00 11,1 C 39 % 1028,4 hPa 0,0 l/m 16,5 km/h N -2,3 C 6,0 C 39,4 km/h
09.12.2016 11:00 11,7 C 38 % 1028,3 hPa 0,0 l/m 13,9 km/h N -2,1 C 7,7 C 35,0 km/h
09.12.2016 12:00 12,4 C 38 % 1028,4 hPa 0,0 l/m 16,7 km/h N -1,7 C 7,5 C 33,8 km/h
09.12.2016 13:00 12,1 C 39 % 1028,1 hPa 0,0 l/m 17,0 km/h N -1,6 C 7,0 C 41,0 km/h
09.12.2016 14:00 12,0 C 38 % 1027,7 hPa 0,0 l/m 15,3 km/h N -1,9 C 7,5 C 39,4 km/h
09.12.2016 15:00 11,4 C 38 % 1027,4 hPa 0,0 l/m 14,5 km/h N -2,6 C 7,0 C 33,8 km/h
09.12.2016 16:00 10,6 C 47 % 1028,1 hPa 0,0 l/m 14,5 km/h N -0,3 C 6,1 C 34,6 km/h
09.12.2016 17:00 10,6 C 53 % 1028,4 hPa 0,0 l/m 11,3 km/h N 1,4 C 7,5 C 29,8 km/h
09.12.2016 18:00 10,2 C 54 % 1028,7 hPa 0,0 l/m 8,9 km/h N 1,3 C 8,7 C 25,8 km/h
09.12.2016 19:00 9,9 C 66 % 1028,8 hPa 0,0 l/m 8,9 km/h N 3,7 C 8,2 C 30,6 km/h
09.12.2016 20:00 9,4 C 68 % 1028,6 hPa 0,0 l/m 8,1 km/h N 3,7 C 8,3 C 25,0 km/h
09.12.2016 21:00 9,1 C 67 % 1028,5 hPa 0,0 l/m 9,6 km/h N 3,3 C 6,9 C 29,0 km/h
09.12.2016 22:00 8,6 C 67 % 1028,7 hPa 0,0 l/m 12,1 km/h N 2,8 C 5,0 C 33,0 km/h
09.12.2016 23:00 8,9 C 66 % 1028,0 hPa 0,0 l/m 12,1 km/h N 2,9 C 5,1 C 29,8 km/h
10.12.2016 00:00 9,3 C 65 % 1027,2 hPa 0,0 l/m 8,9 km/h N 3,1 C 7,6 C 28,1 km/h
10.12.2016 01:00 9,8 C 62 % 1026,8 hPa 0,0 l/m 12,1 km/h N 2,9 C 6,2 C 31,4 km/h
10.12.2016 02:00 9,6 C 65 % 1026,8 hPa 0,0 l/m 9,6 km/h N 3,3 C 7,4 C 29,0 km/h
10.12.2016 03:00 9,6 C 68 % 1026,3 hPa 0,0 l/m 5,6 km/h N 3,9 C 9,6 C 20,9 km/h
10.12.2016 04:00 10,0 C 66 % 1025,8 hPa 0,0 l/m 6,4 km/h N 3,8 C 10,0 C 22,5 km/h
10.12.2016 05:00 9,4 C 67 % 1025,7 hPa 0,0 l/m 1,6 km/h N 3,5 C 9,4 C 9,6 km/h
10.12.2016 06:00 9,3 C 73 % 1025,3 hPa 0,0 l/m 1,6 km/h N 4,6 C 9,3 C 14,5 km/h
10.12.2016 07:00 10,3 C 69 % 1025,1 hPa 0,0 l/m 4,8 km/h N 4,7 C 10,3 C 19,3 km/h
10.12.2016 08:00 10,5 C 65 % 1025,1 hPa 0,0 l/m 4,8 km/h N 4,1 C 10,5 C 17,7 km/h
10.12.2016 09:00 11,3 C 62 % 1025,4 hPa 0,0 l/m 4,0 km/h N 4,1 C 11,3 C 16,9 km/h
10.12.2016 10:00 12,1 C 60 % 1025,4 hPa 0,0 l/m 4,8 km/h N 4,4 C 11,6 C 17,7 km/h
10.12.2016 11:00 13,4 C 56 % 1024,6 hPa 0,0 l/m 7,2 km/h N 4,8 C 12,9 C 20,1 km/h
10.12.2016 12:00 14,0 C 55 % 1024,0 hPa 0,0 l/m 4,8 km/h N 5,1 C 14,0 C 16,9 km/h
10.12.2016 13:00 14,5 C 55 % 1023,3 hPa 0,0 l/m 6,4 km/h N 5,6 C 14,5 C 20,9 km/h
10.12.2016 14:00 14,3 C 57 % 1023,0 hPa 0,0 l/m 4,8 km/h N 5,9 C 14,3 C 15,3 km/h
10.12.2016 15:00 13,8 C 59 % 1022,8 hPa 0,0 l/m 1,6 km/h N 5,8 C 13,8 C 13,7 km/h
10.12.2016 16:00 13,0 C 60 % 1022,6 hPa 0,0 l/m 1,6 km/h N 5,4 C 13,0 C 8,9 km/h
10.12.2016 17:00 10,9 C 64 % 1022,5 hPa 0,0 l/m 0,0 km/h N 4,4 C 10,9 C 0,8 km/h
10.12.2016 18:00 8,0 C 71 % 1022,5 hPa 0,0 l/m 0,0 km/h N 3,0 C 8,0 C 1,6 km/h
10.12.2016 19:00 6,9 C 77 % 1022,1 hPa 0,0 l/m 0,0 km/h N 3,2 C 6,9 C 6,4 km/h
10.12.2016 20:00 11,0 C 56 % 1021,3 hPa 0,0 l/m 3,2 km/h N 2,5 C 11,0 C 19,4 km/h
10.12.2016 21:00 11,7 C 48 % 1021,0 hPa 0,0 l/m 5,6 km/h N 1,1 C 11,7 C 22,5 km/h
10.12.2016 22:00 11,1 C 46 % 1020,9 hPa 0,0 l/m 5,6 km/h N -0,0 C 11,2 C 19,3 km/h
10.12.2016 23:00 10,7 C 44 % 1020,7 hPa 0,0 l/m 4,8 km/h N -1,2 C 10,7 C 19,3 km/h
11.12.2016 00:00 9,4 C 47 % 1020,6 hPa 0,0 l/m 0,0 km/h N -1,5 C 9,4 C 4,0 km/h
11.12.2016 01:00 7,2 C 54 % 1020,1 hPa 0,0 l/m 0,0 km/h N -1,5 C 7,2 C 1,6 km/h
11.12.2016 02:00 6,2 C 59 % 1019,6 hPa 0,0 l/m 0,0 km/h N -1,3 C 6,2 C 3,2 km/h
11.12.2016 03:00 4,7 C 63 % 1018,8 hPa 0,0 l/m 0,0 km/h N -1,7 C 4,7 C 0,8 km/h
11.12.2016 04:00 2,8 C 67 % 1018,3 hPa 0,0 l/m 0,0 km/h N -2,8 C 2,8 C 0,8 km/h
11.12.2016 05:00 0,9 C 73 % 1017,9 hPa 0,0 l/m 0,0 km/h N -3,3 C 0,9 C 0,0 km/h
11.12.2016 06:00 0,1 C 78 % 1017,5 hPa 0,0 l/m 0,0 km/h N -3,2 C 0,1 C 0,0 km/h
11.12.2016 07:00 -0,4 C 79 % 1017,2 hPa 0,0 l/m 0,0 km/h N -3,5 C -0,4 C 0,8 km/h
11.12.2016 08:00 0,1 C 82 % 1017,4 hPa 0,0 l/m 1,1 km/h N -2,6 C 0,1 C 7,2 km/h
11.12.2016 09:00 9,6 C 49 % 1016,5 hPa 0,0 l/m 8,5 km/h N -0,8 C 8,0 C 28,2 km/h
11.12.2016 10:00 9,9 C 46 % 1016,0 hPa 0,0 l/m 14,1 km/h N -1,1 C 5,5 C 44,3 km/h
11.12.2016 11:00 9,3 C 50 % 1015,1 hPa 0,0 l/m 15,0 km/h N -0,7 C 4,4 C 43,9 km/h
11.12.2016 12:00 10,5 C 49 % 1014,3 hPa 0,0 l/m 13,4 km/h N 0,2 C 6,5 C 34,2 km/h
11.12.2016 13:00 10,7 C 58 % 1014,0 hPa 0,0 l/m 18,6 km/h N 2,7 C 4,6 C 45,0 km/h
11.12.2016 14:00 9,2 C 69 % 1014,8 hPa 0,0 l/m 20,1 km/h N 3,8 C 2,4 C 50,3 km/h
11.12.2016 15:00 8,2 C 72 % 1015,5 hPa 0,0 l/m 12,5 km/h N 3,4 C 4,3 C 31,0 km/h
11.12.2016 16:00 8,0 C 70 % 1016,4 hPa 0,0 l/m 10,3 km/h N 2,8 C 5,3 C 31,8 km/h
11.12.2016 17:00 8,0 C 69 % 1017,2 hPa 0,0 l/m 10,0 km/h N 2,5 C 5,5 C 31,0 km/h
11.12.2016 18:00 8,7 C 66 % 1017,8 hPa 0,0 l/m 9,7 km/h N 2,6 C 6,4 C 27,8 km/h
11.12.2016 19:00 7,9 C 69 % 1017,9 hPa 0,0 l/m 8,8 km/h N 2,6 C 6,2 C 28,6 km/h
11.12.2016 20:00 7,7 C 71 % 1017,5 hPa 0,0 l/m 11,1 km/h N 2,7 C 4,4 C 30,6 km/h
11.12.2016 21:00 7,8 C 69 % 1017,5 hPa 0,0 l/m 11,0 km/h N 2,6 C 4,6 C 29,4 km/h
11.12.2016 22:00 7,8 C 71 % 1017,5 hPa 0,0 l/m 9,9 km/h N 2,9 C 5,2 C 26,6 km/h
11.12.2016 23:00 7,7 C 71 % 1017,6 hPa 0,0 l/m 9,9 km/h N 2,8 C 5,1 C 29,8 km/h
Min-Datum _ 06.12.16 09.12.16 11.12.16 - 05.12.16 - 05.12.16 05.12.16 05.12.16
_ Min-Zeit 06:45 12:00 13:00 - 00:00 - 04:45 04:45 00:00
Minimum _ -6,7 C 37 % 1013,9 hPa - 0,0 km/h - -8,8 C -6,6 C 0,0 km/h
Max-Datum _ 10.12.16 05.12.16 07.12.16 05.12.16 11.12.16 - 10.12.16 10.12.16 11.12.16
_ Max-Zeit 13:30 02:00 10:00 00:00 14:00 - 14:30 13:30 14:15
Maximum _ 14,6 C 92 % 1039,2 hPa 0,0 l/m 24,9 km/h
N
- 5,9 C 14,6 C 57,9 km/h
N
Durchschnitt _ 2,4 C 74 % 1029,2 hPa #0,0 l/m 3,5 km/h N -2,1 C 1,6 C 11,1 km/h